Time;durP1;ratioP1;P1;durP2;ratioP2;P2;SDS_P1;SDS_P2;PMS_P1;PMS_P2;Temp;Humidity;BMP_temperature;BMP_pressure;BME280_temperature;BME280_humidity;BME280_pressure;Samples;Min_cycle;Max_cycle;Signal;HPM_P1;HPM_P2
2023/12/27 00:01:23;;;;;;;6.77;1.30;;;5.70;99.90;;;;;;5028377;28;20235;-81
2023/12/27 00:03:49;;;;;;;5.23;1.40;;;5.70;99.90;;;;;;5028223;28;20308;-81
2023/12/27 00:06:16;;;;;;;1.30;0.93;;;5.70;99.90;;;;;;5028090;28;20224;-81
2023/12/27 00:08:43;;;;;;;1.43;0.93;;;5.60;99.90;;;;;;5027773;28;20303;-80
2023/12/27 00:11:11;;;;;;;9.27;1.53;;;5.60;99.90;;;;;;5028181;28;20299;-81
2023/12/27 00:13:38;;;;;;;4.63;1.37;;;5.60;99.90;;;;;;5028825;28;20630;-81
2023/12/27 00:16:06;;;;;;;4.77;1.13;;;5.50;99.90;;;;;;5040309;28;20283;-81
2023/12/27 00:18:32;;;;;;;4.20;1.20;;;5.50;99.90;;;;;;5047061;28;20826;-81
2023/12/27 00:20:59;;;;;;;4.90;1.60;;;5.40;99.90;;;;;;5047416;28;20759;-81
2023/12/27 00:23:27;;;;;;;3.33;1.57;;;5.40;99.90;;;;;;5047972;28;20311;-79
2023/12/27 00:25:54;;;;;;;7.60;1.10;;;5.40;99.90;;;;;;5047516;28;20556;-79
2023/12/27 00:28:23;;;;;;;3.93;1.50;;;5.40;99.90;;;;;;5047820;28;20725;-81
2023/12/27 00:30:51;;;;;;;10.37;1.47;;;5.40;99.90;;;;;;5048270;28;20269;-79
2023/12/27 00:33:18;;;;;;;5.57;1.50;;;5.40;99.90;;;;;;5044589;28;20246;-80
2023/12/27 00:35:46;;;;;;;6.57;1.33;;;5.30;99.90;;;;;;5027559;28;20208;-80
2023/12/27 00:38:12;;;;;;;3.30;1.40;;;5.30;99.90;;;;;;5027264;28;20232;-80
2023/12/27 00:40:39;;;;;;;5.23;1.30;;;5.20;99.90;;;;;;5026899;28;20315;-80
2023/12/27 00:43:06;;;;;;;4.47;1.17;;;5.20;99.90;;;;;;5046334;28;20295;-80
2023/12/27 00:45:34;;;;;;;6.80;1.47;;;5.20;99.90;;;;;;5047620;28;20295;-79
2023/12/27 00:48:01;;;;;;;3.90;1.17;;;5.10;99.90;;;;;;5047583;28;20294;-81
2023/12/27 00:50:28;;;;;;;7.60;1.40;;;5.20;99.90;;;;;;5047672;28;20309;-80
2023/12/27 00:52:55;;;;;;;3.33;1.07;;;5.20;99.90;;;;;;5047690;28;20239;-80
2023/12/27 00:55:22;;;;;;;8.30;1.80;;;5.20;99.90;;;;;;5047322;28;20303;-80
2023/12/27 00:57:49;;;;;;;5.27;1.30;;;5.10;99.90;;;;;;5047479;28;20297;-80
2023/12/27 01:00:16;;;;;;;3.20;1.30;;;5.10;99.90;;;;;;5046798;28;20299;-80
2023/12/27 01:02:45;;;;;;;6.40;1.30;;;5.10;99.90;;;;;;5046609;28;20236;-80
2023/12/27 01:05:12;;;;;;;4.17;1.17;;;5.10;99.90;;;;;;5046631;28;20255;-79
2023/12/27 01:07:38;;;;;;;5.20;1.37;;;5.10;99.90;;;;;;5047291;28;20258;-80
2023/12/27 01:10:06;;;;;;;5.17;1.40;;;5.20;99.90;;;;;;5046726;28;20319;-80
2023/12/27 01:12:34;;;;;;;5.27;1.70;;;5.20;99.90;;;;;;5047367;28;20337;-78
2023/12/27 01:15:01;;;;;;;4.70;1.70;;;5.20;99.90;;;;;;5047067;28;20235;-80
2023/12/27 01:17:27;;;;;;;5.27;1.37;;;5.10;99.90;;;;;;5047321;28;20294;-80
2023/12/27 01:19:56;;;;;;;7.33;1.47;;;5.10;99.90;;;;;;5046987;28;20266;-79
2023/12/27 01:22:23;;;;;;;8.70;1.40;;;5.10;99.90;;;;;;5046990;28;20249;-77
2023/12/27 01:24:50;;;;;;;6.90;1.40;;;5.10;99.90;;;;;;5046628;28;20727;-77
2023/12/27 01:27:16;;;;;;;6.33;1.30;;;5.00;99.90;;;;;;5047111;28;20251;-76
2023/12/27 01:29:43;;;;;;;6.63;1.33;;;5.00;99.90;;;;;;5046717;28;20304;-78
2023/12/27 01:32:10;;;;;;;7.57;1.37;;;5.00;99.90;;;;;;5050076;28;20211;-77
2023/12/27 01:34:38;;;;;;;5.30;1.57;;;5.00;99.90;;;;;;5037119;28;20699;-79
2023/12/27 01:37:07;;;;;;;6.60;1.23;;;5.00;99.90;;;;;;5032173;28;20209;-79
2023/12/27 01:39:34;;;;;;;6.17;1.40;;;5.00;99.90;;;;;;5049841;28;20295;-80
2023/12/27 01:42:02;;;;;;;2.10;1.03;;;4.90;99.90;;;;;;5050768;28;20327;-81
2023/12/27 01:44:29;;;;;;;8.97;1.50;;;4.90;99.90;;;;;;5050800;28;20295;-80
2023/12/27 01:46:55;;;;;;;3.57;1.10;;;4.90;99.90;;;;;;5050788;28;20311;-80
2023/12/27 01:49:22;;;;;;;3.23;1.30;;;4.90;99.90;;;;;;5050314;28;20658;-76
2023/12/27 01:51:49;;;;;;;6.17;1.60;;;4.90;99.90;;;;;;5050620;28;20298;-76
2023/12/27 01:54:17;;;;;;;5.10;1.10;;;4.90;99.90;;;;;;5050095;28;20204;-77
2023/12/27 01:56:45;;;;;;;5.60;1.23;;;4.90;99.90;;;;;;5050488;28;20286;-79
2023/12/27 01:59:12;;;;;;;6.33;1.30;;;4.90;99.90;;;;;;5050536;28;20685;-79
2023/12/27 02:01:39;;;;;;;2.77;1.20;;;4.90;99.90;;;;;;5050599;28;20315;-80
2023/12/27 02:04:06;;;;;;;5.67;1.40;;;4.90;99.90;;;;;;5050028;28;20240;-80
2023/12/27 02:06:36;;;;;;;5.67;1.20;;;4.90;99.90;;;;;;5050095;28;20299;-79
2023/12/27 02:09:03;;;;;;;8.17;1.90;;;4.90;99.90;;;;;;5049403;28;20318;-78
2023/12/27 02:11:31;;;;;;;9.80;1.53;;;4.90;99.90;;;;;;5050135;28;20208;-79
2023/12/27 02:13:58;;;;;;;4.97;1.83;;;4.90;99.90;;;;;;5049705;28;20274;-79
2023/12/27 02:16:25;;;;;;;3.77;1.37;;;4.90;99.90;;;;;;5049861;28;20291;-76
2023/12/27 02:18:53;;;;;;;5.23;1.57;;;4.90;99.90;;;;;;5049634;28;20265;-76
2023/12/27 02:21:20;;;;;;;9.10;1.43;;;4.80;99.90;;;;;;5049655;28;20758;-76
2023/12/27 02:23:49;;;;;;;5.03;1.30;;;4.80;99.90;;;;;;5049477;28;20256;-76
2023/12/27 02:26:17;;;;;;;2.30;1.00;;;4.80;99.90;;;;;;5049814;28;20598;-76
2023/12/27 02:28:44;;;;;;;5.00;1.23;;;4.80;99.90;;;;;;5050371;28;20266;-76
2023/12/27 02:31:11;;;;;;;4.63;1.30;;;4.80;99.90;;;;;;5045601;28;20218;-76
2023/12/27 02:33:43;;;;;;;7.17;1.47;;;4.80;99.90;;;;;;5034812;28;20582;-76
2023/12/27 02:36:10;;;;;;;9.57;1.47;;;4.80;99.90;;;;;;5046555;28;20200;-76
2023/12/27 02:38:37;;;;;;;5.13;1.50;;;4.80;99.90;;;;;;5049347;28;20299;-80
2023/12/27 02:41:04;;;;;;;6.33;1.23;;;4.80;99.90;;;;;;5049138;28;20265;-78
2023/12/27 02:43:32;;;;;;;5.40;1.13;;;4.70;99.90;;;;;;5048486;28;20620;-78
2023/12/27 02:45:59;;;;;;;5.00;1.47;;;4.70;99.90;;;;;;5049835;28;20216;-79
2023/12/27 02:48:26;;;;;;;4.97;1.40;;;4.60;99.90;;;;;;5049320;28;20246;-79
2023/12/27 02:50:53;;;;;;;6.50;1.80;;;4.60;99.90;;;;;;5049660;28;20212;-79
2023/12/27 02:53:20;;;;;;;4.20;1.10;;;4.70;99.90;;;;;;5049250;28;20295;-79
2023/12/27 02:55:46;;;;;;;8.30;1.50;;;4.70;99.90;;;;;;5049348;28;20231;-79
2023/12/27 02:58:14;;;;;;;8.13;1.93;;;4.70;99.90;;;;;;5049414;28;20291;-79
2023/12/27 03:00:42;;;;;;;5.43;1.63;;;4.70;99.90;;;;;;5049349;28;20204;-79
2023/12/27 03:03:10;;;;;;;4.00;1.13;;;4.70;99.90;;;;;;5048980;28;20232;-79
2023/12/27 03:05:37;;;;;;;5.40;1.60;;;4.70;99.90;;;;;;5048896;28;20844;-79
2023/12/27 03:08:04;;;;;;;3.23;0.87;;;4.70;99.90;;;;;;5048618;28;20299;-77
2023/12/27 03:10:34;;;;;;;4.53;1.40;;;4.70;99.90;;;;;;5049008;28;20275;-79
2023/12/27 03:13:01;;;;;;;4.23;1.50;;;4.70;99.90;;;;;;5049112;28;20299;-78
2023/12/27 03:15:28;;;;;;;8.97;2.20;;;4.70;99.90;;;;;;5049115;28;20208;-78
2023/12/27 03:17:56;;;;;;;5.43;1.20;;;4.60;99.90;;;;;;5048772;28;20632;-78
2023/12/27 03:20:26;;;;;;;9.63;1.40;;;4.60;99.90;;;;;;5049131;28;20227;-78
2023/12/27 03:22:53;;;;;;;4.97;1.30;;;4.70;99.90;;;;;;5048464;28;20323;-78
2023/12/27 03:25:20;;;;;;;4.20;1.03;;;4.70;99.90;;;;;;5048505;28;20481;-77
2023/12/27 03:27:47;;;;;;;4.70;1.30;;;4.60;99.90;;;;;;5048566;28;20295;-78
2023/12/27 03:30:14;;;;;;;9.33;1.50;;;4.60;99.90;;;;;;5047712;28;20259;-78
2023/12/27 03:32:41;;;;;;;6.20;1.50;;;4.60;99.90;;;;;;5048180;28;20254;-79
2023/12/27 03:35:09;;;;;;;6.40;1.77;;;4.60;99.90;;;;;;5048098;28;20296;-80
2023/12/27 03:37:36;;;;;;;6.37;1.43;;;4.60;99.90;;;;;;5048455;28;20305;-79
2023/12/27 03:40:04;;;;;;;6.83;1.70;;;4.50;99.90;;;;;;5048126;28;20746;-81
2023/12/27 03:42:31;;;;;;;3.30;1.30;;;4.60;99.90;;;;;;5048065;28;20827;-81
2023/12/27 03:44:58;;;;;;;5.50;1.67;;;4.50;99.90;;;;;;5048548;28;20305;-79
2023/12/27 03:47:25;;;;;;;3.50;1.20;;;4.50;99.90;;;;;;5048164;28;20319;-78
2023/12/27 03:49:52;;;;;;;4.40;1.20;;;4.60;99.90;;;;;;5048154;28;20353;-78
2023/12/27 03:52:20;;;;;;;5.97;1.50;;;4.50;99.90;;;;;;5047846;28;20801;-78
2023/12/27 03:54:47;;;;;;;5.97;1.20;;;4.50;99.90;;;;;;5047843;28;20239;-79
2023/12/27 03:57:14;;;;;;;6.00;1.53;;;4.50;99.90;;;;;;5047796;28;20216;-80
2023/12/27 03:59:41;;;;;;;7.63;1.50;;;4.50;99.90;;;;;;5047805;28;20251;-76
2023/12/27 04:02:08;;;;;;;5.67;1.50;;;4.50;99.90;;;;;;5047735;28;20228;-76
2023/12/27 04:04:35;;;;;;;3.97;1.33;;;4.50;99.90;;;;;;5044348;28;20299;-76
2023/12/27 04:07:02;;;;;;;8.90;1.43;;;4.40;99.90;;;;;;5047500;28;20294;-76
2023/12/27 04:09:30;;;;;;;7.87;1.20;;;4.40;99.90;;;;;;5046793;28;20658;-76
2023/12/27 04:11:57;;;;;;;5.53;1.40;;;4.40;99.90;;;;;;5047367;28;20318;-76
2023/12/27 04:14:24;;;;;;;4.07;1.43;;;4.50;99.90;;;;;;5047453;28;20671;-76
2023/12/27 04:16:51;;;;;;;10.37;1.70;;;4.40;99.90;;;;;;5047520;28;20294;-75
2023/12/27 04:19:18;;;;;;;4.80;1.50;;;4.40;99.90;;;;;;5047353;28;20573;-75
2023/12/27 04:21:45;;;;;;;5.80;1.50;;;4.40;99.90;;;;;;5047400;28;20718;-76
2023/12/27 04:24:12;;;;;;;7.47;1.63;;;4.30;99.90;;;;;;5046988;28;20343;-76
2023/12/27 04:26:41;;;;;;;8.40;1.70;;;4.40;99.90;;;;;;5046544;28;20220;-76
2023/12/27 04:29:08;;;;;;;3.13;1.63;;;4.30;99.90;;;;;;5046824;28;20240;-76
2023/12/27 04:31:37;;;;;;;7.00;1.43;;;4.50;99.90;;;;;;5046306;28;20292;-76
2023/12/27 04:34:04;;;;;;;3.67;1.30;;;4.40;99.90;;;;;;5037843;28;20217;-76
2023/12/27 04:36:31;;;;;;;9.03;1.40;;;4.40;99.90;;;;;;5027002;28;20213;-76
2023/12/27 04:38:58;;;;;;;7.27;1.50;;;4.40;99.90;;;;;;5026807;28;20766;-76
2023/12/27 04:41:25;;;;;;;3.40;1.20;;;4.40;99.90;;;;;;5027315;28;20309;-76
2023/12/27 04:43:53;;;;;;;3.47;0.93;;;4.40;99.90;;;;;;5027161;28;20327;-76
2023/12/27 04:46:20;;;;;;;3.97;1.40;;;4.30;99.90;;;;;;5027370;28;20288;-76
2023/12/27 04:48:47;;;;;;;7.77;2.00;;;4.30;99.90;;;;;;5027156;28;20297;-76
2023/12/27 04:51:14;;;;;;;6.90;1.80;;;4.30;99.90;;;;;;5027112;28;20322;-76
2023/12/27 04:53:41;;;;;;;2.57;1.20;;;4.30;99.90;;;;;;5026771;28;20240;-77
2023/12/27 04:56:08;;;;;;;5.97;1.90;;;4.20;99.90;;;;;;5027121;28;20213;-78
2023/12/27 04:58:36;;;;;;;5.20;1.40;;;4.20;99.90;;;;;;5027416;28;20217;-78
2023/12/27 05:01:06;;;;;;;9.57;1.83;;;4.20;99.90;;;;;;5038605;28;20237;-78
2023/12/27 05:03:35;;;;;;;5.13;1.40;;;4.20;99.90;;;;;;5047096;28;20228;-77
2023/12/27 05:06:01;;;;;;;8.50;1.70;;;4.10;99.90;;;;;;5048246;28;20689;-76
2023/12/27 05:08:28;;;;;;;4.20;1.20;;;4.10;99.90;;;;;;5050718;28;20326;-77
2023/12/27 05:10:55;;;;;;;5.47;1.60;;;4.10;99.90;;;;;;5051081;28;20304;-77
2023/12/27 05:13:22;;;;;;;3.67;1.40;;;4.10;99.90;;;;;;5050924;28;20212;-76
2023/12/27 05:15:49;;;;;;;5.00;1.50;;;4.10;99.90;;;;;;5050903;28;20299;-76
2023/12/27 05:18:17;;;;;;;5.27;1.50;;;4.10;99.90;;;;;;5050816;28;20297;-77
2023/12/27 05:20:44;;;;;;;7.60;1.77;;;4.00;99.90;;;;;;5051114;28;20208;-78
2023/12/27 05:23:11;;;;;;;4.67;1.47;;;4.00;99.90;;;;;;5050026;28;20326;-77
2023/12/27 05:25:38;;;;;;;9.43;1.80;;;4.00;99.90;;;;;;5050869;28;20215;-77
2023/12/27 05:28:05;;;;;;;7.17;1.33;;;4.00;99.90;;;;;;5050766;28;20251;-78
2023/12/27 05:30:32;;;;;;;9.03;1.57;;;4.00;99.90;;;;;;5041121;28;20303;-78
2023/12/27 05:32:59;;;;;;;6.93;1.53;;;3.90;99.90;;;;;;5030491;28;20205;-78
2023/12/27 05:35:28;;;;;;;5.10;1.07;;;4.00;99.90;;;;;;5030885;28;20211;-78
2023/12/27 05:37:54;;;;;;;7.27;1.60;;;3.90;99.90;;;;;;5030737;28;20208;-80
2023/12/27 05:40:21;;;;;;;5.10;1.27;;;3.90;99.90;;;;;;5030792;28;20236;-80
2023/12/27 05:42:48;;;;;;;4.37;1.30;;;3.90;99.90;;;;;;5030906;28;20235;-80
2023/12/27 05:45:16;;;;;;;8.03;1.43;;;3.90;99.90;;;;;;5031039;28;20896;-79
2023/12/27 05:47:42;;;;;;;7.13;1.80;;;4.00;99.90;;;;;;5030668;28;20209;-78
2023/12/27 05:50:10;;;;;;;4.30;1.50;;;4.00;99.90;;;;;;5030061;28;20259;-77
2023/12/27 05:52:40;;;;;;;6.63;1.67;;;3.90;99.90;;;;;;5030530;28;20563;-78
2023/12/27 05:55:08;;;;;;;4.93;1.20;;;4.00;99.90;;;;;;5030371;28;20204;-77
2023/12/27 05:57:34;;;;;;;4.13;1.57;;;3.90;99.90;;;;;;5043956;28;20304;-77
2023/12/27 06:00:02;;;;;;;5.93;1.97;;;3.90;99.90;;;;;;5049969;28;20240;-78
2023/12/27 06:02:29;;;;;;;4.17;1.33;;;3.80;99.90;;;;;;5050216;28;20235;-77
2023/12/27 06:04:56;;;;;;;6.17;1.37;;;3.80;99.90;;;;;;5034046;28;20306;-78
2023/12/27 06:07:23;;;;;;;4.00;1.13;;;3.80;99.90;;;;;;5030262;28;20774;-77
2023/12/27 06:09:52;;;;;;;6.00;1.37;;;3.80;99.90;;;;;;5029817;28;20346;-79
2023/12/27 06:12:19;;;;;;;8.40;1.80;;;3.70;99.90;;;;;;5029815;28;20213;-78
2023/12/27 06:14:46;;;;;;;4.70;1.83;;;3.60;99.90;;;;;;5049644;28;20204;-76
2023/12/27 06:17:13;;;;;;;7.80;1.90;;;3.60;99.90;;;;;;5049853;28;20618;-76
2023/12/27 06:19:40;;;;;;;3.87;1.83;;;3.60;99.90;;;;;;5048624;28;20239;-75
2023/12/27 06:22:07;;;;;;;5.87;1.73;;;3.60;99.90;;;;;;5049542;28;20308;-76
2023/12/27 06:24:34;;;;;;;6.90;1.70;;;3.60;99.90;;;;;;5049643;28;20977;-75
2023/12/27 06:27:02;;;;;;;5.47;1.50;;;3.70;99.90;;;;;;5049901;28;20321;-75
2023/12/27 06:29:29;;;;;;;3.57;1.33;;;3.70;99.90;;;;;;5048353;28;20732;-78
2023/12/27 06:31:56;;;;;;;4.17;1.30;;;3.70;99.90;;;;;;5029712;28;20747;-78
2023/12/27 06:34:23;;;;;;;6.30;1.63;;;3.70;99.90;;;;;;5029904;28;20274;-79
2023/12/27 06:36:51;;;;;;;9.33;1.93;;;3.80;99.90;;;;;;5029989;28;20295;-76
2023/12/27 06:39:18;;;;;;;5.37;1.47;;;3.70;99.90;;;;;;5029200;28;20271;-76
2023/12/27 06:41:44;;;;;;;4.70;1.37;;;3.70;99.90;;;;;;5029876;28;20299;-76
2023/12/27 06:44:13;;;;;;;6.17;1.47;;;3.70;99.90;;;;;;5044791;28;20324;-79
2023/12/27 06:46:40;;;;;;;3.80;1.63;;;3.60;99.90;;;;;;5043344;28;20286;-80
2023/12/27 06:49:06;;;;;;;5.03;1.20;;;3.70;99.90;;;;;;5037253;28;20287;-80
2023/12/27 06:51:33;;;;;;;3.93;1.80;;;3.70;99.90;;;;;;5034928;28;20320;-80
2023/12/27 06:54:01;;;;;;;4.63;1.50;;;3.70;99.90;;;;;;5029184;28;20209;-80
2023/12/27 06:56:27;;;;;;;6.07;1.63;;;3.60;99.90;;;;;;5029721;28;20231;-80
2023/12/27 06:58:54;;;;;;;6.37;1.63;;;3.60;99.90;;;;;;5029357;28;20296;-78
2023/12/27 07:01:24;;;;;;;5.17;1.10;;;3.70;99.90;;;;;;5029133;28;20212;-78
2023/12/27 07:03:51;;;;;;;3.17;1.47;;;3.60;99.90;;;;;;5036935;28;20212;-80
2023/12/27 07:06:18;;;;;;;4.30;1.20;;;3.60;99.90;;;;;;5037206;28;20766;-80
2023/12/27 07:08:45;;;;;;;4.63;1.43;;;3.60;99.90;;;;;;5036300;28;20242;-80
2023/12/27 07:11:18;;;;;;;6.83;1.60;;;3.60;99.90;;;;;;5036898;28;20239;-80
2023/12/27 07:13:46;;;;;;;5.07;1.53;;;3.60;99.90;;;;;;5034388;28;20196;-81
2023/12/27 07:16:13;;;;;;;5.07;1.77;;;3.70;99.90;;;;;;5038652;28;20208;-79
2023/12/27 07:18:41;;;;;;;4.23;1.23;;;3.70;99.90;;;;;;5045926;28;20638;-79
2023/12/27 07:21:08;;;;;;;7.07;1.60;;;3.80;99.90;;;;;;5030513;28;20308;-80
2023/12/27 07:23:35;;;;;;;4.90;1.70;;;3.80;99.90;;;;;;5034365;28;20246;-80
2023/12/27 07:26:04;;;;;;;6.67;1.87;;;3.80;99.90;;;;;;5034709;28;20729;-80
2023/12/27 07:28:31;;;;;;;6.13;1.83;;;3.80;99.90;;;;;;5044922;28;20297;-79
2023/12/27 07:30:59;;;;;;;4.20;1.40;;;3.80;99.90;;;;;;5041835;28;20215;-79
2023/12/27 07:33:25;;;;;;;4.33;1.50;;;3.80;99.90;;;;;;5034333;28;20705;-80
2023/12/27 07:35:54;;;;;;;4.40;1.67;;;3.80;99.90;;;;;;5047694;28;20766;-80
2023/12/27 07:38:21;;;;;;;5.67;1.70;;;3.80;99.90;;;;;;5047972;28;20305;-80
2023/12/27 07:40:47;;;;;;;4.47;1.60;;;3.90;99.90;;;;;;5048283;28;20295;-80
2023/12/27 07:43:14;;;;;;;7.23;1.70;;;3.90;99.90;;;;;;5047789;28;20259;-79
2023/12/27 07:45:43;;;;;;;6.07;1.50;;;3.90;99.90;;;;;;5048226;28;20204;-82
2023/12/27 07:48:10;;;;;;;1.63;1.10;;;3.80;99.90;;;;;;5048303;28;20578;-82
2023/12/27 07:50:39;;;;;;;4.53;1.70;;;3.80;99.90;;;;;;5048083;28;20295;-81
2023/12/27 07:53:09;;;;;;;1.70;1.30;;;3.80;99.90;;;;;;5047474;28;20227;-81
2023/12/27 07:55:36;;;;;;;4.83;1.47;;;3.80;99.90;;;;;;5047952;28;20243;-82
2023/12/27 07:58:04;;;;;;;5.70;1.47;;;3.80;99.90;;;;;;5047559;28;20219;-82
2023/12/27 08:00:31;;;;;;;6.07;1.73;;;3.80;99.90;;;;;;5047951;28;20204;-81
2023/12/27 08:02:59;;;;;;;6.13;1.67;;;3.70;99.90;;;;;;5047518;28;20327;-82
2023/12/27 08:05:26;;;;;;;3.77;1.63;;;3.80;99.90;;;;;;5047624;28;20212;-81
2023/12/27 08:07:53;;;;;;;6.07;1.30;;;3.80;99.90;;;;;;5033882;28;20227;-81
2023/12/27 08:10:21;;;;;;;8.13;1.77;;;3.80;99.90;;;;;;5044038;28;20236;-81
2023/12/27 08:12:48;;;;;;;9.93;1.70;;;3.80;99.90;;;;;;5036048;28;20209;-81
2023/12/27 08:15:15;;;;;;;5.03;1.57;;;3.80;99.90;;;;;;5038451;28;20287;-83
2023/12/27 08:17:42;;;;;;;6.37;1.50;;;3.80;99.90;;;;;;5040920;28;20258;-81
2023/12/27 08:20:10;;;;;;;8.57;1.87;;;3.80;99.90;;;;;;5031578;28;20669;-81
2023/12/27 08:22:37;;;;;;;5.93;1.90;;;3.80;99.90;;;;;;5033234;28;20220;-82
2023/12/27 08:25:09;;;;;;;4.00;1.40;;;3.80;99.90;;;;;;5034422;28;20231;-82
2023/12/27 08:27:37;;;;;;;6.40;1.70;;;3.90;99.90;;;;;;5037666;28;20713;-82
2023/12/27 08:30:05;;;;;;;6.27;1.40;;;3.80;99.90;;;;;;5045141;28;20254;-81
2023/12/27 08:32:32;;;;;;;5.93;1.00;;;3.90;99.90;;;;;;5041602;28;20312;-81
2023/12/27 08:35:00;;;;;;;4.17;1.40;;;3.90;99.90;;;;;;5035873;28;20243;-81
2023/12/27 08:37:27;;;;;;;5.77;1.30;;;4.00;99.90;;;;;;5047516;28;20208;-82
2023/12/27 08:39:54;;;;;;;4.87;1.40;;;4.00;99.90;;;;;;5046428;28;20299;-81
2023/12/27 08:42:21;;;;;;;3.93;1.50;;;4.10;99.90;;;;;;5045052;28;20207;-80
2023/12/27 08:44:49;;;;;;;5.50;1.60;;;4.20;99.90;;;;;;5047081;28;20239;-80
2023/12/27 08:47:16;;;;;;;8.07;1.43;;;4.30;99.90;;;;;;5046819;28;20204;-80
2023/12/27 08:49:43;;;;;;;5.13;1.60;;;4.40;99.90;;;;;;5046622;28;20211;-80
2023/12/27 08:52:10;;;;;;;4.93;1.53;;;4.40;99.90;;;;;;5046247;28;20861;-81
2023/12/27 08:54:37;;;;;;;7.93;1.43;;;4.50;99.90;;;;;;5046828;28;20240;-81
2023/12/27 08:57:04;;;;;;;10.63;1.77;;;4.60;99.90;;;;;;5046361;28;20295;-81
2023/12/27 08:59:31;;;;;;;6.70;1.40;;;4.70;99.90;;;;;;5046582;28;20746;-80
2023/12/27 09:02:00;;;;;;;3.60;1.30;;;4.80;99.90;;;;;;5046906;28;20236;-81
2023/12/27 09:04:27;;;;;;;5.97;2.13;;;4.90;99.90;;;;;;5046938;28;20329;-80
2023/12/27 09:06:54;;;;;;;3.73;1.53;;;4.90;99.90;;;;;;5047303;28;20235;-80
2023/12/27 09:09:20;;;;;;;9.43;2.07;;;4.90;99.90;;;;;;5045821;28;20835;-81
2023/12/27 09:11:47;;;;;;;4.67;1.57;;;5.00;99.90;;;;;;5045365;28;20204;-80
2023/12/27 09:14:14;;;;;;;4.60;1.50;;;5.10;99.90;;;;;;5042753;28;20209;-81
2023/12/27 09:16:41;;;;;;;8.93;1.90;;;5.10;99.90;;;;;;5033329;28;20815;-81
2023/12/27 09:19:09;;;;;;;5.83;2.00;;;5.20;99.90;;;;;;5032927;28;20621;-81
2023/12/27 09:21:44;;;;;;;3.77;1.70;;;5.40;99.90;;;;;;5036490;28;20292;-82
2023/12/27 09:24:10;;;;;;;3.37;1.50;;;5.40;99.90;;;;;;5035683;28;20250;-81
2023/12/27 09:26:37;;;;;;;6.13;1.67;;;5.60;99.90;;;;;;5033023;28;20630;-80
2023/12/27 09:29:04;;;;;;;3.73;1.40;;;5.60;99.90;;;;;;5031991;28;20695;-81
2023/12/27 09:31:32;;;;;;;4.03;1.60;;;5.60;99.90;;;;;;5033885;28;20691;-81
2023/12/27 09:33:59;;;;;;;4.97;1.43;;;5.70;99.90;;;;;;5042266;28;20577;-81
2023/12/27 09:36:27;;;;;;;6.50;2.30;;;5.70;99.90;;;;;;5042481;28;20274;-81
2023/12/27 09:38:56;;;;;;;6.03;1.43;;;5.80;99.90;;;;;;5041772;28;20208;-81
2023/12/27 09:41:23;;;;;;;7.53;1.70;;;5.70;99.90;;;;;;5041937;28;20207;-81
2023/12/27 09:43:53;;;;;;;6.30;1.60;;;5.80;99.90;;;;;;5042165;28;20228;-81
2023/12/27 09:46:22;;;;;;;5.30;1.40;;;5.80;99.90;;;;;;5041885;28;20201;-81
2023/12/27 09:48:50;;;;;;;4.17;1.60;;;6.00;99.90;;;;;;5041673;28;20222;-81
2023/12/27 09:51:23;;;;;;;4.20;1.60;;;5.90;99.90;;;;;;5042054;28;20989;-81
2023/12/27 09:53:51;;;;;;;4.53;1.50;;;5.90;99.90;;;;;;5045552;28;20245;-81
2023/12/27 09:56:19;;;;;;;2.63;1.20;;;6.00;99.90;;;;;;5045690;28;20211;-80
2023/12/27 09:58:51;;;;;;;6.43;1.90;;;6.10;99.90;;;;;;5045528;28;20204;-81
2023/12/27 10:01:23;;;;;;;8.17;1.50;;;6.10;99.90;;;;;;5045764;28;20481;-81
2023/12/27 10:03:58;;;;;;;6.00;2.07;;;6.30;99.90;;;;;;5042883;28;20232;-81
2023/12/27 10:06:41;;;;;;;3.23;1.40;;;6.20;99.90;;;;;;5045524;28;20290;-80
2023/12/27 10:09:10;;;;;;;7.83;1.60;;;6.30;99.90;;;;;;5044731;28;20329;-82
2023/12/27 10:11:39;;;;;;;13.27;1.60;;;6.40;99.90;;;;;;5045131;28;20283;-82
2023/12/27 10:14:07;;;;;;;4.90;1.63;;;6.40;99.90;;;;;;5044893;28;20304;-82
2023/12/27 10:16:35;;;;;;;5.50;1.53;;;6.30;99.90;;;;;;5045033;28;20236;-81
2023/12/27 10:19:04;;;;;;;7.30;1.87;;;6.40;99.90;;;;;;5045185;28;20270;-81
2023/12/27 10:21:41;;;;;;;6.80;1.67;;;6.50;99.90;;;;;;5045206;28;20208;-81
2023/12/27 10:24:10;;;;;;;6.43;2.47;;;6.70;99.90;;;;;;5044505;28;20239;-82
2023/12/27 10:26:37;;;;;;;5.87;2.00;;;6.80;99.90;;;;;;5044967;28;20616;-81
2023/12/27 10:29:07;;;;;;;5.53;1.90;;;6.90;99.90;;;;;;5044583;28;20645;-82
2023/12/27 10:31:34;;;;;;;4.97;1.90;;;7.00;99.90;;;;;;5044685;28;20208;-81
2023/12/27 10:34:03;;;;;;;9.33;2.50;;;7.00;99.90;;;;;;5044259;28;20595;-82
2023/12/27 10:36:31;;;;;;;8.00;1.63;;;6.90;99.90;;;;;;5044806;28;20215;-82
2023/12/27 10:39:02;;;;;;;4.40;1.93;;;7.00;99.90;;;;;;5044626;28;20319;-82
2023/12/27 10:41:32;;;;;;;8.20;1.97;;;7.00;99.90;;;;;;5044315;28;20571;-82
2023/12/27 10:44:00;;;;;;;6.37;2.00;;;7.10;99.90;;;;;;5044519;28;20323;-82
2023/12/27 10:46:27;;;;;;;6.27;1.70;;;7.00;99.90;;;;;;5044682;28;20498;-82
2023/12/27 10:49:00;;;;;;;3.83;1.50;;;7.00;99.90;;;;;;5039059;28;20332;-81
2023/12/27 10:51:30;;;;;;;6.97;2.00;;;6.90;99.90;;;;;;5033396;28;20699;-81
2023/12/27 10:53:59;;;;;;;4.77;1.50;;;7.00;99.90;;;;;;5036067;28;20200;-82
2023/12/27 10:56:27;;;;;;;7.30;1.57;;;7.00;99.90;;;;;;5033746;28;20208;-81
2023/12/27 10:58:57;;;;;;;5.30;1.70;;;7.10;99.90;;;;;;5041023;28;20211;-82
2023/12/27 11:01:25;;;;;;;6.27;1.80;;;7.20;99.90;;;;;;5043869;28;20211;-81
2023/12/27 11:03:53;;;;;;;4.33;1.63;;;7.30;99.90;;;;;;5043096;28;20236;-81
2023/12/27 11:06:21;;;;;;;8.47;1.93;;;7.40;99.90;;;;;;5043372;28;20214;-81
2023/12/27 11:08:51;;;;;;;10.53;2.07;;;7.30;99.90;;;;;;5043842;28;20240;-82
2023/12/27 11:11:20;;;;;;;4.53;1.90;;;7.30;99.90;;;;;;5044066;28;20216;-81
2023/12/27 11:13:50;;;;;;;6.37;1.73;;;7.30;99.90;;;;;;5043997;28;20303;-80
2023/12/27 11:16:21;;;;;;;6.10;1.70;;;7.30;99.90;;;;;;5030377;28;20292;-81
2023/12/27 11:18:50;;;;;;;5.70;2.20;;;7.50;99.90;;;;;;5024668;28;20219;-80
2023/12/27 11:21:17;;;;;;;6.50;1.93;;;7.50;99.90;;;;;;5024171;28;20212;-80
2023/12/27 11:23:44;;;;;;;8.50;1.90;;;7.70;99.90;;;;;;5023692;28;20231;-79
2023/12/27 11:26:11;;;;;;;6.23;1.87;;;7.80;99.90;;;;;;5023847;28;20300;-80
2023/12/27 11:28:41;;;;;;;5.47;1.40;;;7.80;99.90;;;;;;5023396;28;20220;-80
2023/12/27 11:31:08;;;;;;;6.77;1.83;;;7.80;99.90;;;;;;5037547;28;20615;-80
2023/12/27 11:33:37;;;;;;;8.87;2.37;;;7.90;99.90;;;;;;5043656;28;20212;-80
2023/12/27 11:36:04;;;;;;;3.37;1.80;;;7.90;99.90;;;;;;5043152;28;20208;-81
2023/12/27 11:38:32;;;;;;;2.67;1.40;;;7.80;99.90;;;;;;5043178;28;20200;-80
2023/12/27 11:41:02;;;;;;;6.30;1.60;;;7.70;99.90;;;;;;5043593;28;20200;-81
2023/12/27 11:43:52;;;;;;;3.00;1.90;;;7.70;99.90;;;;;;5043309;28;20732;-80
2023/12/27 11:46:26;;;;;;;5.80;1.73;;;7.60;99.90;;;;;;5043470;28;20211;-81
2023/12/27 11:48:54;;;;;;;4.07;1.90;;;7.60;99.90;;;;;;5043407;28;20200;-81
2023/12/27 11:51:32;;;;;;;2.67;1.67;;;7.60;99.90;;;;;;5043018;28;20208;-81
2023/12/27 11:53:59;;;;;;;4.43;1.60;;;7.60;99.90;;;;;;5043003;28;20227;-81
2023/12/27 11:56:29;;;;;;;3.03;1.60;;;7.60;99.90;;;;;;5042075;28;20243;-80
2023/12/27 11:58:56;;;;;;;9.30;1.97;;;7.60;99.90;;;;;;5043812;28;20236;-80
2023/12/27 12:01:27;;;;;;;6.03;1.80;;;7.50;99.90;;;;;;5043142;28;20211;-80
2023/12/27 12:04:25;;;;;;;3.50;1.77;;;7.40;99.90;;;;;;5043643;28;20715;-80
2023/12/27 12:07:19;;;;;;;5.83;1.90;;;7.30;99.90;;;;;;5036974;28;20269;-81
2023/12/27 12:09:47;;;;;;;7.30;1.87;;;7.40;99.90;;;;;;5022196;28;20244;-81
2023/12/27 12:12:17;;;;;;;7.60;1.90;;;7.50;99.90;;;;;;5023167;28;20637;-81
2023/12/27 12:14:44;;;;;;;6.10;1.50;;;7.60;99.90;;;;;;5026147;28;20754;-83
2023/12/27 12:17:13;;;;;;;4.93;1.80;;;7.60;99.90;;;;;;5028082;28;20204;-82
2023/12/27 12:19:42;;;;;;;4.77;1.70;;;7.60;99.90;;;;;;5030818;28;20298;-80
2023/12/27 12:22:09;;;;;;;4.60;1.70;;;7.50;99.90;;;;;;5033124;28;20255;-80
2023/12/27 12:24:36;;;;;;;5.83;2.00;;;7.50;99.90;;;;;;5042644;28;20483;-80
2023/12/27 12:27:03;;;;;;;4.63;1.80;;;7.50;99.90;;;;;;5042428;28;20303;-80
2023/12/27 12:29:30;;;;;;;7.73;1.80;;;7.50;99.90;;;;;;5042236;28;20208;-80
2023/12/27 12:31:58;;;;;;;6.17;2.20;;;7.50;99.90;;;;;;5042658;28;21121;-81
2023/12/27 12:34:25;;;;;;;6.03;1.83;;;7.40;99.90;;;;;;5042918;28;20643;-80
2023/12/27 12:36:54;;;;;;;5.07;1.80;;;7.40;99.90;;;;;;5042644;28;20262;-82
2023/12/27 12:39:20;;;;;;;3.47;1.80;;;7.30;99.90;;;;;;5042088;28;20298;-81
2023/12/27 12:41:48;;;;;;;5.63;2.07;;;7.30;99.90;;;;;;5042602;28;20298;-81
2023/12/27 12:44:15;;;;;;;8.03;2.17;;;7.30;99.90;;;;;;5042224;28;20302;-81
2023/12/27 12:46:42;;;;;;;3.57;1.60;;;7.30;99.90;;;;;;5042512;28;20254;-81
2023/12/27 12:49:11;;;;;;;7.43;2.07;;;7.10;99.90;;;;;;5042477;28;20291;-81
2023/12/27 12:51:38;;;;;;;4.63;1.90;;;7.20;99.90;;;;;;5041875;28;20273;-81
2023/12/27 12:54:07;;;;;;;4.27;1.90;;;7.20;99.90;;;;;;5041120;28;20302;-81
2023/12/27 12:56:38;;;;;;;7.73;2.40;;;7.20;99.90;;;;;;5041961;28;20282;-81
2023/12/27 12:59:07;;;;;;;4.17;1.80;;;7.20;99.90;;;;;;5042227;28;20199;-81
2023/12/27 13:01:34;;;;;;;4.33;2.07;;;7.30;99.90;;;;;;5042478;28;20257;-81